Time;durP1;ratioP1;P1;durP2;ratioP2;P2;SDS_P1;SDS_P2;PMS_P1;PMS_P2;Temp;Humidity;BMP_temperature;BMP_pressure;BME280_temperature;BME280_humidity;BME280_pressure;Samples;Min_cycle;Max_cycle;Signal;HPM_P1;HPM_P2
2022/04/23 00:00:31;;;;;;;16.00;0.40;;;;;;;11.41;100.00;94630.28;5133747;27;20423;-50
2022/04/23 00:02:59;;;;;;;0.40;0.30;;;;;;;11.60;100.00;94618.81;5133800;27;20419;-50
2022/04/23 00:05:29;;;;;;;0.40;0.40;;;;;;;11.48;100.00;94635.22;5133474;27;20936;-50
2022/04/23 00:07:58;;;;;;;0.30;0.30;;;;;;;11.16;100.00;94593.53;5133678;27;20434;-50
2022/04/23 00:10:26;;;;;;;0.30;0.20;;;;;;;11.64;100.00;94619.84;5133223;27;20995;-50
2022/04/23 00:12:55;;;;;;;0.30;0.30;;;;;;;11.28;100.00;94617.75;5132688;27;20495;-50
2022/04/23 00:15:25;;;;;;;2.00;1.53;;;;;;;11.21;100.00;94620.00;5133299;27;20517;-50
2022/04/23 00:17:54;;;;;;;1.03;0.50;;;;;;;11.03;100.00;94620.78;5133525;27;20479;-50
2022/04/23 00:20:24;;;;;;;0.30;0.20;;;;;;;11.37;100.00;94621.34;5132798;27;20976;-50
2022/04/23 00:22:53;;;;;;;0.30;0.20;;;;;;;11.49;100.00;94619.00;5133453;27;20480;-50
2022/04/23 00:25:21;;;;;;;0.40;0.30;;;;;;;11.51;100.00;94623.25;5133105;27;20509;-50
2022/04/23 00:27:51;;;;;;;0.30;0.20;;;;;;;11.34;100.00;94623.75;5133066;27;20454;-50
2022/04/23 00:30:20;;;;;;;0.70;0.70;;;;;;;11.40;100.00;94620.75;5132965;27;20833;-50
2022/04/23 00:32:50;;;;;;;0.30;0.20;;;;;;;11.50;100.00;94619.78;5132974;27;20518;-50
2022/04/23 00:35:19;;;;;;;0.40;0.30;;;;;;;11.45;100.00;94618.00;5132850;27;20431;-50
2022/04/23 00:37:47;;;;;;;0.30;0.20;;;;;;;11.27;100.00;94621.50;5132910;27;20435;-50
2022/04/23 00:40:17;;;;;;;0.40;0.30;;;;;;;10.73;100.00;94616.72;5132268;27;20510;-51
2022/04/23 00:42:47;;;;;;;2.43;1.10;;;;;;;9.93;100.00;94613.22;5132362;27;20876;-50
2022/04/23 00:45:16;;;;;;;0.40;0.40;;;;;;;9.90;100.00;94595.25;5131793;27;20458;-50
2022/04/23 00:47:44;;;;;;;0.30;0.20;;;;;;;10.42;100.00;94615.59;5133121;27;20529;-50
2022/04/23 00:50:14;;;;;;;0.50;0.50;;;;;;;10.93;100.00;94606.94;5133032;27;20497;-50
2022/04/23 00:52:43;;;;;;;9.63;0.70;;;;;;;10.96;100.00;94599.16;5132715;27;20422;-50
2022/04/23 00:55:11;;;;;;;0.30;0.20;;;;;;;11.17;100.00;94594.34;5132644;28;20567;-50
2022/04/23 00:57:40;;;;;;;0.30;0.20;;;;;;;11.26;100.00;94593.38;5132773;28;20424;-50
2022/04/23 01:00:09;;;;;;;0.30;0.20;;;;;;;10.72;100.00;94501.22;5132690;28;20427;-50
2022/04/23 01:02:38;;;;;;;0.30;0.20;;;;;;;10.92;100.00;94517.84;5132539;28;20472;-50
2022/04/23 01:05:09;;;;;;;0.30;0.20;;;;;;;11.43;100.00;94587.53;5132620;28;20522;-50
2022/04/23 01:07:44;;;;;;;0.30;0.20;;;;;;;11.48;100.00;94590.88;5132653;28;20455;-50
2022/04/23 01:10:13;;;;;;;0.30;0.30;;;;;;;11.48;100.00;94588.22;5132500;28;20458;-50
2022/04/23 01:12:41;;;;;;;0.30;0.20;;;;;;;11.10;100.00;94581.47;5132969;28;20505;-50
2022/04/23 01:15:11;;;;;;;0.30;0.30;;;;;;;11.06;100.00;94580.44;5132679;28;20510;-50
2022/04/23 01:17:40;;;;;;;0.30;0.20;;;;;;;10.59;100.00;94581.44;5132513;28;20439;-50
2022/04/23 01:20:11;;;;;;;0.50;0.40;;;;;;;10.48;100.00;94582.63;5132450;28;20466;-50
2022/04/23 01:22:40;;;;;;;0.30;0.20;;;;;;;10.77;100.00;94595.75;5132668;27;20477;-50
2022/04/23 01:25:12;;;;;;;0.30;0.20;;;;;;;10.65;100.00;94595.41;5136321;27;20473;-50
2022/04/23 01:27:41;;;;;;;0.40;0.30;;;;;;;10.76;100.00;94594.97;5136179;27;20517;-50
2022/04/23 01:30:11;;;;;;;0.30;0.30;;;;;;;11.00;100.00;94586.94;5136462;27;20979;-50
2022/04/23 01:32:40;;;;;;;0.50;0.33;;;;;;;10.35;100.00;94593.16;5136434;27;20461;-51
2022/04/23 01:35:10;;;;;;;1.20;1.20;;;;;;;10.42;100.00;94577.72;5136349;27;21020;-50
2022/04/23 01:37:39;;;;;;;0.37;0.27;;;;;;;10.68;100.00;94578.91;5136373;27;21056;-50
2022/04/23 01:40:08;;;;;;;0.30;0.20;;;;;;;9.89;100.00;94569.84;5136584;27;20453;-50
2022/04/23 01:42:37;;;;;;;0.70;0.70;;;;;;;9.78;100.00;94547.22;5135979;27;20453;-50
2022/04/23 01:45:06;;;;;;;0.30;0.30;;;;;;;10.52;100.00;94573.06;5136125;27;20427;-51
2022/04/23 01:47:35;;;;;;;0.30;0.20;;;;;;;10.32;100.00;94522.22;5136339;27;20509;-50
2022/04/23 01:50:04;;;;;;;0.30;0.20;;;;;;;10.85;100.00;94572.03;5135646;27;20849;-50
2022/04/23 01:52:33;;;;;;;0.40;0.30;;;;;;;10.93;100.00;94561.84;5136250;27;20884;-51
2022/04/23 01:55:02;;;;;;;0.30;0.20;;;;;;;10.88;100.00;94561.94;5136016;27;20498;-51
2022/04/23 01:57:30;;;;;;;0.40;0.30;;;;;;;10.89;100.00;94550.25;5136299;27;20859;-49
2022/04/23 01:59:59;;;;;;;0.40;0.27;;;;;;;10.98;100.00;94573.16;5135849;27;20497;-50
2022/04/23 02:02:27;;;;;;;0.30;0.20;;;;;;;10.94;100.00;94566.88;5136080;27;20808;-49
2022/04/23 02:04:56;;;;;;;0.50;0.50;;;;;;;10.93;100.00;94580.41;5136255;27;20411;-51
2022/04/23 02:07:24;;;;;;;0.30;0.30;;;;;;;10.91;100.00;94572.75;5135635;27;20526;-51
2022/04/23 02:09:54;;;;;;;0.80;0.40;;;;;;;10.90;100.00;94576.47;5135823;27;20422;-51
2022/04/23 02:12:24;;;;;;;0.40;0.40;;;;;;;10.95;100.00;94572.97;5135690;27;20525;-51
2022/04/23 02:14:52;;;;;;;0.40;0.30;;;;;;;11.00;100.00;94571.03;5135545;27;20481;-50
2022/04/23 02:17:21;;;;;;;0.93;0.93;;;;;;;10.61;100.00;94575.84;5135866;27;20465;-50
2022/04/23 02:19:49;;;;;;;0.40;0.30;;;;;;;10.34;100.00;94571.19;5135583;27;20429;-50
2022/04/23 02:22:17;;;;;;;0.50;0.50;;;;;;;10.56;100.00;94570.63;5135738;27;20513;-50
2022/04/23 02:24:46;;;;;;;0.40;0.33;;;;;;;10.43;100.00;94590.66;5135728;27;20495;-50
2022/04/23 02:27:16;;;;;;;1.47;1.47;;;;;;;9.74;100.00;94601.00;5134774;27;20510;-50
2022/04/23 02:29:44;;;;;;;0.40;0.30;;;;;;;9.85;100.00;94595.31;5134971;27;20514;-50
2022/04/23 02:32:12;;;;;;;0.60;0.60;;;;;;;10.28;100.00;94584.75;5135366;27;21027;-50
2022/04/23 02:34:41;;;;;;;0.30;0.20;;;;;;;10.42;100.00;94591.75;5134810;27;20560;-51
2022/04/23 02:37:09;;;;;;;0.60;0.37;;;;;;;9.71;100.00;94585.69;5135054;27;20426;-50
2022/04/23 02:39:37;;;;;;;0.37;0.30;;;;;;;10.24;100.00;94576.63;5135117;27;20474;-50
2022/04/23 02:42:09;;;;;;;0.73;0.73;;;;;;;10.43;100.00;94584.56;5134394;27;20454;-50
2022/04/23 02:44:38;;;;;;;0.43;0.40;;;;;;;10.14;100.00;94572.22;5134754;27;20474;-50
2022/04/23 02:47:08;;;;;;;1.27;1.17;;;;;;;10.32;100.00;94580.50;5134064;27;20959;-50
2022/04/23 02:49:37;;;;;;;0.30;0.30;;;;;;;10.35;100.00;94572.75;5134671;27;20839;-50
2022/04/23 02:52:05;;;;;;;0.30;0.20;;;;;;;9.90;100.00;94582.03;5134960;27;20503;-50
2022/04/23 02:54:34;;;;;;;0.30;0.20;;;;;;;10.13;100.00;94575.94;5134317;27;20557;-50
2022/04/23 02:57:03;;;;;;;0.30;0.20;;;;;;;10.06;100.00;94574.69;5134973;27;20479;-50
2022/04/23 02:59:31;;;;;;;0.30;0.20;;;;;;;10.01;100.00;94580.06;5134987;27;20510;-50
2022/04/23 03:02:01;;;;;;;0.30;0.30;;;;;;;10.39;100.00;94572.97;5134097;27;20498;-51
2022/04/23 03:04:30;;;;;;;0.30;0.30;;;;;;;10.39;100.00;94586.22;5134236;27;20435;-50
2022/04/23 03:06:58;;;;;;;0.80;0.80;;;;;;;10.15;100.00;94583.59;5134623;27;20466;-51
2022/04/23 03:09:27;;;;;;;0.77;0.77;;;;;;;10.43;100.00;94584.56;5134843;27;20588;-50
2022/04/23 03:11:55;;;;;;;0.40;0.30;;;;;;;10.42;100.00;94583.00;5133768;27;20493;-50
2022/04/23 03:14:24;;;;;;;0.50;0.33;;;;;;;10.65;100.00;94596.16;5134738;27;20420;-50
2022/04/23 03:16:52;;;;;;;0.73;0.50;;;;;;;10.30;100.00;94590.56;5134475;27;20427;-50
2022/04/23 03:19:22;;;;;;;0.40;0.30;;;;;;;10.26;100.00;94594.84;5134505;27;20870;-51
2022/04/23 03:21:51;;;;;;;0.40;0.40;;;;;;;10.28;100.00;94590.06;5134362;27;20521;-50
2022/04/23 03:24:19;;;;;;;0.37;0.30;;;;;;;10.37;100.00;94591.03;5134077;27;20438;-50
2022/04/23 03:26:48;;;;;;;2.00;0.60;;;;;;;9.42;100.00;94602.38;5134522;27;20513;-50
2022/04/23 03:29:18;;;;;;;1.03;0.67;;;;;;;9.30;100.00;94601.94;5134192;27;20510;-50
2022/04/23 03:31:48;;;;;;;0.77;0.33;;;;;;;9.46;100.00;94599.97;5134446;27;20427;-50
2022/04/23 03:34:18;;;;;;;0.40;0.30;;;;;;;9.26;100.00;94594.88;5134358;27;20446;-50
2022/04/23 03:36:48;;;;;;;0.30;0.30;;;;;;;9.52;100.00;94590.91;5133922;27;20870;-50
2022/04/23 03:39:16;;;;;;;0.40;0.40;;;;;;;9.61;100.00;94605.09;5133944;27;20458;-50
2022/04/23 03:41:45;;;;;;;0.30;0.30;;;;;;;9.44;100.00;94612.66;5133869;27;20458;-50
2022/04/23 03:44:13;;;;;;;0.37;0.30;;;;;;;9.48;100.00;94606.56;5133609;27;20509;-50
2022/04/23 03:46:41;;;;;;;6.80;0.43;;;;;;;9.88;100.00;94593.97;5133925;27;20495;-50
2022/04/23 03:49:10;;;;;;;0.30;0.20;;;;;;;10.13;100.00;94605.06;5133830;27;20483;-49
2022/04/23 03:51:38;;;;;;;0.30;0.30;;;;;;;9.96;100.00;94601.28;5133545;27;20469;-50
2022/04/23 03:54:09;;;;;;;0.40;0.30;;;;;;;9.62;100.00;94605.88;5132927;27;20419;-50
2022/04/23 03:56:37;;;;;;;1.23;1.23;;;;;;;9.06;100.00;94619.59;5133782;27;20506;-50
2022/04/23 03:59:07;;;;;;;2.83;0.97;;;;;;;8.84;100.00;94613.94;5133621;27;20499;-50
2022/04/23 04:01:35;;;;;;;0.30;0.20;;;;;;;8.82;100.00;94611.59;5131446;27;20938;-50
2022/04/23 04:04:05;;;;;;;0.60;0.57;;;;;;;8.52;100.00;94616.28;5131222;27;20423;-50
2022/04/23 04:06:33;;;;;;;0.40;0.33;;;;;;;8.52;100.00;94619.72;5131094;27;20434;-50
2022/04/23 04:09:01;;;;;;;1.33;1.23;;;;;;;8.60;100.00;94619.09;5131142;27;20487;-50
2022/04/23 04:12:01;;;;;;;0.30;0.30;;;;;;;8.78;100.00;94617.66;5131100;27;20967;-50
2022/04/23 04:14:20;;;;;;;0.40;0.40;;;;;;;9.63;100.00;94624.13;5130891;27;20469;-50
2022/04/23 04:16:49;;;;;;;0.30;0.30;;;;;;;9.84;100.00;94620.19;5132978;27;20863;-50
2022/04/23 04:19:18;;;;;;;0.60;0.60;;;;;;;9.75;100.00;94603.34;5133532;27;20778;-50
2022/04/23 04:21:47;;;;;;;0.40;0.30;;;;;;;9.48;100.00;94582.75;5133186;27;20534;-49
2022/04/23 04:24:16;;;;;;;0.40;0.30;;;;;;;9.58;100.00;94624.19;5133070;27;20427;-50
2022/04/23 04:26:47;;;;;;;0.37;0.27;;;;;;;10.00;100.00;94626.09;5133114;27;20469;-50
2022/04/23 04:29:15;;;;;;;0.40;0.37;;;;;;;10.38;100.00;94625.16;5132967;27;20427;-50
2022/04/23 04:31:50;;;;;;;4.40;1.43;;;;;;;10.20;100.00;94600.22;5133085;27;20581;-50
2022/04/23 04:34:19;;;;;;;0.30;0.20;;;;;;;9.66;100.00;94557.44;5132847;27;20520;-49
2022/04/23 04:36:49;;;;;;;0.33;0.20;;;;;;;10.38;100.00;94616.41;5132894;27;20510;-50
2022/04/23 04:39:18;;;;;;;0.53;0.53;;;;;;;10.61;100.00;94620.88;5132790;27;20518;-50
2022/04/23 04:41:48;;;;;;;2.30;0.80;;;;;;;10.18;100.00;94620.91;5132976;27;20498;-50
2022/04/23 04:44:17;;;;;;;0.40;0.30;;;;;;;10.53;100.00;94624.16;5132473;27;20505;-49
2022/04/23 04:46:45;;;;;;;0.90;0.90;;;;;;;10.55;100.00;94609.56;5133188;27;20801;-49
2022/04/23 04:49:14;;;;;;;0.50;0.40;;;;;;;10.60;100.00;94624.63;5132549;27;20477;-50
2022/04/23 04:51:42;;;;;;;0.40;0.40;;;;;;;10.30;100.00;94577.31;5132845;27;20454;-49
2022/04/23 04:54:10;;;;;;;0.30;0.30;;;;;;;10.81;100.00;94628.56;5132318;27;20438;-49
2022/04/23 04:56:39;;;;;;;1.73;0.70;;;;;;;10.85;100.00;94629.56;5132666;27;20462;-49
2022/04/23 04:59:09;;;;;;;0.40;0.30;;;;;;;10.60;100.00;94624.63;5131607;27;20470;-49
2022/04/23 05:01:37;;;;;;;2.03;0.70;;;;;;;10.60;100.00;94622.75;5132641;28;20415;-49
2022/04/23 05:04:06;;;;;;;0.70;0.70;;;;;;;10.21;100.00;94508.34;5132653;28;20865;-49
2022/04/23 05:06:34;;;;;;;4.00;1.33;;;;;;;11.07;100.00;94621.81;5132660;28;20511;-49
2022/04/23 05:09:03;;;;;;;2.37;1.30;;;;;;;10.17;100.00;94629.91;5132578;28;20473;-49
2022/04/23 05:11:33;;;;;;;1.90;1.23;;;;;;;9.68;100.00;94634.66;5132626;28;20461;-49
2022/04/23 05:14:01;;;;;;;1.40;1.30;;;;;;;9.26;100.00;94639.81;5132380;28;20514;-50
2022/04/23 05:16:33;;;;;;;0.80;0.80;;;;;;;9.59;100.00;94644.25;5132208;28;20986;-50
2022/04/23 05:19:02;;;;;;;1.73;0.50;;;;;;;10.00;100.00;94644.63;5132421;28;20423;-50
2022/04/23 05:21:30;;;;;;;2.20;0.57;;;;;;;9.66;100.00;94650.03;5132093;28;20466;-50
2022/04/23 05:23:58;;;;;;;0.60;0.60;;;;;;;9.49;100.00;94647.00;5132268;28;20858;-50
2022/04/23 05:26:27;;;;;;;0.57;0.57;;;;;;;9.78;100.00;94650.44;5132757;28;20493;-50
2022/04/23 05:28:55;;;;;;;0.50;0.50;;;;;;;10.30;100.00;94651.47;5132680;28;20454;-50
2022/04/23 05:31:24;;;;;;;0.30;0.20;;;;;;;10.04;100.00;94646.44;5132410;28;20426;-49
2022/04/23 05:33:54;;;;;;;0.40;0.37;;;;;;;10.19;100.00;94640.22;5132136;28;20517;-50
2022/04/23 05:36:23;;;;;;;0.40;0.40;;;;;;;9.89;100.00;94641.31;5132105;28;20498;-50
2022/04/23 05:38:51;;;;;;;5.03;0.40;;;;;;;10.49;100.00;94650.47;5132476;28;20457;-50
2022/04/23 05:41:20;;;;;;;0.50;0.50;;;;;;;10.90;100.00;94642.75;5132161;28;21006;-50
2022/04/23 05:43:48;;;;;;;0.40;0.30;;;;;;;11.18;100.00;94643.66;5131622;28;20569;-49
2022/04/23 05:46:17;;;;;;;0.30;0.30;;;;;;;10.29;100.00;94536.03;5131290;28;20430;-49
2022/04/23 05:48:45;;;;;;;0.30;0.20;;;;;;;10.74;100.00;94543.31;5132117;28;20429;-49
2022/04/23 05:51:15;;;;;;;0.40;0.30;;;;;;;11.55;100.00;94632.97;5132468;28;20876;-49
2022/04/23 05:53:44;;;;;;;0.50;0.40;;;;;;;11.76;100.00;94631.59;5132293;28;20623;-49
2022/04/23 05:56:12;;;;;;;1.13;1.13;;;;;;;12.07;100.00;94632.56;5132019;28;20545;-50
2022/04/23 05:58:40;;;;;;;0.33;0.27;;;;;;;12.49;100.00;94636.81;5132218;28;20842;-49
2022/04/23 06:01:09;;;;;;;0.50;0.40;;;;;;;12.98;100.00;94627.25;5131372;28;20510;-50
2022/04/23 06:03:37;;;;;;;16.70;2.30;;;;;;;13.06;97.38;94630.00;5132218;28;20438;-50
2022/04/23 06:06:06;;;;;;;1.53;1.17;;;;;;;13.04;95.50;94634.03;5132009;28;20419;-49
2022/04/23 06:08:36;;;;;;;1.13;0.80;;;;;;;13.20;94.87;94629.97;5131984;28;20988;-49
2022/04/23 06:11:06;;;;;;;1.73;1.63;;;;;;;12.80;95.09;94636.94;5133873;27;20430;-49
2022/04/23 06:13:34;;;;;;;0.40;0.33;;;;;;;13.05;89.54;94638.28;5135618;27;20439;-49
2022/04/23 06:16:03;;;;;;;0.60;0.60;;;;;;;13.80;87.44;94625.03;5135701;27;22348;-50
2022/04/23 06:18:31;;;;;;;1.13;1.13;;;;;;;14.78;83.56;94638.88;5135550;27;20434;-49
2022/04/23 06:21:00;;;;;;;5.10;0.40;;;;;;;15.53;74.23;94641.16;5135835;27;20505;-49
2022/04/23 06:23:28;;;;;;;0.50;0.50;;;;;;;14.44;74.51;94639.59;5135432;27;20808;-49
2022/04/23 06:25:58;;;;;;;0.40;0.40;;;;;;;14.08;79.14;94639.75;5135402;27;20978;-49
2022/04/23 06:28:26;;;;;;;1.53;1.50;;;;;;;14.39;75.47;94629.06;5134523;27;20514;-49
2022/04/23 06:30:55;;;;;;;0.43;0.40;;;;;;;15.25;74.66;94641.41;5135664;27;20510;-49
2022/04/23 06:33:23;;;;;;;0.40;0.30;;;;;;;15.72;72.15;94633.56;5135571;27;20442;-49
2022/04/23 06:35:51;;;;;;;0.30;0.20;;;;;;;15.60;67.57;94623.53;5135137;27;20419;-48
2022/04/23 06:38:20;;;;;;;0.40;0.30;;;;;;;16.20;66.97;94585.13;5135340;27;20495;-48
2022/04/23 06:40:48;;;;;;;0.60;0.50;;;;;;;17.04;63.53;94625.13;5135030;27;20966;-49
2022/04/23 06:43:18;;;;;;;0.60;0.50;;;;;;;17.27;61.46;94628.25;5134920;27;20474;-49
2022/04/23 06:45:47;;;;;;;0.97;0.60;;;;;;;16.99;61.45;94628.00;5135496;27;20534;-49
2022/04/23 06:48:15;;;;;;;0.47;0.33;;;;;;;16.55;59.84;94632.03;5134932;27;21011;-50
2022/04/23 06:50:49;;;;;;;0.67;0.60;;;;;;;16.94;63.39;94628.97;5134771;27;20477;-49
2022/04/23 06:53:17;;;;;;;0.70;0.60;;;;;;;17.08;58.56;94637.53;5135078;27;20438;-48
2022/04/23 06:55:45;;;;;;;0.97;0.83;;;;;;;16.14;60.80;94565.81;5135131;27;20422;-49
2022/04/23 06:58:15;;;;;;;1.20;1.20;;;;;;;16.76;60.66;94630.19;5133772;27;20481;-49
2022/04/23 07:00:45;;;;;;;0.67;0.40;;;;;;;16.70;59.39;94625.34;5134673;27;20422;-49
2022/04/23 07:03:14;;;;;;;1.00;0.87;;;;;;;17.50;58.11;94632.97;5135013;27;20493;-50
2022/04/23 07:05:43;;;;;;;0.50;0.40;;;;;;;17.50;58.73;94626.81;5134936;27;20764;-50
2022/04/23 07:08:12;;;;;;;2.13;0.67;;;;;;;18.04;55.44;94595.38;5134721;27;20423;-51
2022/04/23 07:10:40;;;;;;;0.47;0.43;;;;;;;17.45;54.58;94635.84;5134583;27;20936;-50
2022/04/23 07:13:09;;;;;;;0.50;0.33;;;;;;;17.29;55.92;94632.19;5134674;27;20431;-50
2022/04/23 07:15:37;;;;;;;1.40;0.47;;;;;;;17.75;53.26;94631.97;5134602;27;20480;-50
2022/04/23 07:18:08;;;;;;;2.17;0.60;;;;;;;17.96;53.63;94631.13;5134279;27;20492;-51
2022/04/23 07:20:39;;;;;;;0.80;0.77;;;;;;;18.88;50.07;94624.16;5134098;27;20434;-51
2022/04/23 07:25:54;;;;;;;0.60;0.60;;;;;;;19.63;49.31;94619.84;5134321;27;20426;-53
2022/04/23 07:28:22;;;;;;;1.03;1.03;;;;;;;20.34;48.99;94627.88;5134119;27;20419;-53
2022/04/23 07:30:51;;;;;;;0.70;0.70;;;;;;;19.73;48.71;94630.09;5133965;27;20457;-53
2022/04/23 07:38:52;;;;;;;0.83;0.83;;;;;;;19.63;47.43;94628.66;5133953;27;20490;-53
2022/04/23 07:41:21;;;;;;;2.00;1.07;;;;;;;19.35;48.87;94627.09;5133554;27;20431;-53
2022/04/23 07:43:49;;;;;;;0.60;0.60;;;;;;;19.23;48.41;94633.25;5133558;27;20474;-53
2022/04/23 07:46:17;;;;;;;0.60;0.40;;;;;;;20.39;47.91;94621.47;5133806;27;20427;-56
2022/04/23 07:48:47;;;;;;;35.00;1.10;;;;;;;20.11;46.29;94614.19;5133659;27;20482;-55
2022/04/23 07:51:16;;;;;;;0.70;0.67;;;;;;;20.38;45.88;94607.22;5133639;27;20458;-56
2022/04/23 07:53:44;;;;;;;0.80;0.30;;;;;;;20.85;45.59;94615.22;5133640;27;20430;-56
2022/04/23 07:56:13;;;;;;;0.70;0.70;;;;;;;21.39;45.83;94599.91;5133982;27;20427;-56
2022/04/23 07:58:42;;;;;;;0.40;0.30;;;;;;;21.38;43.33;94600.25;5133529;27;20848;-55
2022/04/23 08:01:10;;;;;;;0.60;0.40;;;;;;;21.59;43.52;94607.97;5133487;27;20781;-56
2022/04/23 08:03:39;;;;;;;0.70;0.53;;;;;;;20.91;43.26;94600.38;5133507;27;20426;-55
2022/04/23 08:06:10;;;;;;;0.50;0.40;;;;;;;21.50;43.22;94606.28;5133524;27;20495;-55
2022/04/23 08:08:38;;;;;;;0.50;0.50;;;;;;;21.32;44.37;94607.84;5133471;27;20426;-56
2022/04/23 08:11:07;;;;;;;0.40;0.30;;;;;;;21.35;41.89;94603.66;5133760;27;20471;-56
2022/04/23 08:13:36;;;;;;;1.17;0.50;;;;;;;21.66;43.69;94614.28;5133701;27;20419;-55
2022/04/23 08:16:05;;;;;;;0.50;0.40;;;;;;;22.05;42.10;94601.56;5133443;27;20956;-55
2022/04/23 08:18:34;;;;;;;1.20;1.10;;;;;;;22.46;39.41;94600.75;5133324;27;20527;-55
2022/04/23 08:21:02;;;;;;;0.40;0.30;;;;;;;22.32;38.87;94605.91;5132867;27;20574;-55
2022/04/23 08:23:33;;;;;;;0.40;0.30;;;;;;;22.19;37.68;94590.25;5133093;27;20431;-55
2022/04/23 08:26:03;;;;;;;0.90;0.90;;;;;;;22.71;40.04;94590.34;5133308;27;20542;-53
2022/04/23 08:31:17;;;;;;;0.63;0.63;;;;;;;23.37;36.36;94597.88;5133184;27;20430;-53
2022/04/23 08:34:01;;;;;;;0.47;0.40;;;;;;;24.19;36.96;94591.47;5132592;27;20803;-54
2022/04/23 08:36:31;;;;;;;0.40;0.33;;;;;;;24.31;35.41;94583.84;5132969;27;20422;-55
2022/04/23 08:39:02;;;;;;;0.40;0.33;;;;;;;23.81;37.69;94579.84;5132864;27;20539;-54
2022/04/23 08:41:31;;;;;;;0.37;0.30;;;;;;;23.63;36.51;94592.38;5132948;27;20422;-54
2022/04/23 08:44:07;;;;;;;0.30;0.20;;;;;;;24.13;35.92;94577.50;5132493;27;20505;-54
2022/04/23 08:46:37;;;;;;;1.07;1.07;;;;;;;24.42;34.64;94573.09;5131617;27;20430;-54
2022/04/23 08:49:11;;;;;;;0.50;0.50;;;;;;;23.48;35.87;94574.44;5132715;27;20963;-53
2022/04/23 08:51:41;;;;;;;0.40;0.40;;;;;;;24.50;36.30;94566.59;5132510;27;20448;-53
2022/04/23 08:54:14;;;;;;;0.40;0.30;;;;;;;24.89;34.32;94589.38;5132372;27;20437;-54
2022/04/23 08:56:44;;;;;;;0.70;0.70;;;;;;;24.42;34.01;94554.13;5132349;27;20455;-52
2022/04/23 08:59:14;;;;;;;0.40;0.30;;;;;;;25.54;33.19;94556.03;5132358;28;20466;-53
2022/04/23 09:01:50;;;;;;;1.27;1.17;;;;;;;25.33;32.70;94548.53;5132730;28;20814;-53
2022/04/23 09:04:19;;;;;;;0.67;0.60;;;;;;;26.38;32.01;94547.31;5132659;28;20434;-53
2022/04/23 09:06:49;;;;;;;0.40;0.30;;;;;;;27.00;31.21;94545.72;5132330;28;20418;-53
2022/04/23 09:09:21;;;;;;;0.50;0.40;;;;;;;26.05;31.30;94550.34;5132879;28;20455;-53
2022/04/23 09:11:52;;;;;;;0.50;0.43;;;;;;;26.35;31.91;94540.72;5132362;28;20899;-53
2022/04/23 09:14:26;;;;;;;0.50;0.40;;;;;;;26.83;30.61;94541.09;5132692;28;20867;-54
2022/04/23 09:25:34;;;;;;;0.50;0.50;;;;;;;25.89;32.06;94537.13;5132616;28;20439;-53
2022/04/23 09:28:26;;;;;;;0.67;0.50;;;;;;;24.89;32.59;94529.75;5132252;28;20841;-53
2022/04/23 09:30:56;;;;;;;0.30;0.30;;;;;;;25.03;31.84;94529.81;5127152;28;20446;-54
2022/04/23 09:33:28;;;;;;;2.17;1.60;;;;;;;25.85;32.06;94522.78;5132337;28;20434;-54
2022/04/23 09:35:58;;;;;;;0.40;0.30;;;;;;;26.07;29.97;94436.66;5132547;28;20430;-53
2022/04/23 09:38:28;;;;;;;0.40;0.30;;;;;;;26.22;30.42;94506.16;5131839;28;20505;-54
2022/04/23 09:41:15;;;;;;;0.40;0.30;;;;;;;26.80;30.26;94509.25;5132141;28;20806;-54
2022/04/23 09:43:46;;;;;;;0.30;0.20;;;;;;;28.28;28.34;94505.09;5131849;27;20845;-54
2022/04/23 09:46:14;;;;;;;0.30;0.30;;;;;;;28.35;27.78;94485.94;5136435;27;20438;-53
2022/04/23 09:48:44;;;;;;;0.50;0.40;;;;;;;28.47;27.37;94487.41;5136340;27;20426;-54
2022/04/23 09:51:24;;;;;;;1.63;0.40;;;;;;;28.16;27.41;94495.44;5136293;27;20431;-54
2022/04/23 09:53:55;;;;;;;0.40;0.30;;;;;;;27.17;29.20;94497.88;5136466;27;20430;-54
2022/04/23 09:56:26;;;;;;;0.40;0.30;;;;;;;26.51;31.13;94499.56;5135984;27;20430;-53
2022/04/23 09:58:56;;;;;;;3.40;0.40;;;;;;;26.92;29.80;94489.78;5135725;27;20577;-54
2022/04/23 10:01:25;;;;;;;0.60;0.37;;;;;;;28.04;28.26;94485.03;5136093;27;20934;-57
2022/04/23 10:03:55;;;;;;;0.40;0.30;;;;;;;28.59;27.84;94482.22;5136026;27;20475;-53
2022/04/23 10:06:24;;;;;;;0.40;0.30;;;;;;;28.92;28.85;94478.03;5135843;27;20434;-54
2022/04/23 10:08:57;;;;;;;0.50;0.50;;;;;;;29.19;27.13;94478.91;5135951;27;20419;-53
2022/04/23 10:11:30;;;;;;;2.40;2.30;;;;;;;27.46;28.91;94487.66;5136116;27;20466;-54
2022/04/23 10:13:59;;;;;;;0.67;0.67;;;;;;;28.56;27.87;94460.47;5135658;27;20884;-54
2022/04/23 10:16:30;;;;;;;0.53;0.50;;;;;;;30.13;27.46;94470.63;5135880;27;20430;-54
2022/04/23 10:19:00;;;;;;;0.33;0.30;;;;;;;28.43;27.31;94476.53;5135907;27;20834;-54
2022/04/23 10:21:35;;;;;;;0.40;0.40;;;;;;;28.69;27.32;94475.16;5135543;27;20801;-54
2022/04/23 10:24:10;;;;;;;0.30;0.30;;;;;;;27.80;29.19;94479.72;5135490;27;21008;-54
2022/04/23 10:26:49;;;;;;;1.20;0.40;;;;;;;28.33;29.47;94480.13;5135313;27;20512;-54
2022/04/23 10:29:21;;;;;;;0.30;0.30;;;;;;;28.90;27.17;94475.72;5135038;27;20434;-54
2022/04/23 10:32:25;;;;;;;3.93;0.60;;;;;;;28.48;26.77;94467.94;5135303;27;20875;-56
2022/04/23 10:34:54;;;;;;;1.20;1.20;;;;;;;28.15;27.24;94463.16;5033356;28;20431;-61
2022/04/23 10:37:24;;;;;;;0.43;0.33;;;;;;;27.48;26.59;94458.88;5111896;27;20434;-61
2022/04/23 10:40:16;;;;;;;1.27;0.60;;;;;;;27.90;26.80;94463.31;5135222;27;20470;-60
2022/04/23 10:43:12;;;;;;;4.40;0.57;;;;;;;28.40;27.15;94463.72;5135027;27;20448;-59
2022/04/23 10:45:41;;;;;;;0.43;0.40;;;;;;;29.62;25.72;94416.34;5134919;27;20426;-59
2022/04/23 10:48:29;;;;;;;0.30;0.30;;;;;;;29.62;25.93;94468.25;5135036;27;20487;-59
2022/04/23 10:51:03;;;;;;;3.80;0.40;;;;;;;28.72;24.89;94468.88;5135102;27;20859;-60
2022/04/23 10:53:50;;;;;;;0.30;0.30;;;;;;;28.50;26.00;94471.03;5135071;27;20434;-59
2022/04/23 10:56:20;;;;;;;0.30;0.20;;;;;;;28.12;25.64;94469.41;5134201;27;20425;-58
2022/04/23 10:58:52;;;;;;;0.30;0.30;;;;;;;27.89;27.35;94478.09;5134778;27;20462;-58
2022/04/23 11:01:29;;;;;;;2.63;0.40;;;;;;;27.64;27.58;94482.91;5134890;27;20415;-59
2022/04/23 11:04:12;;;;;;;4.63;0.77;;;;;;;27.48;26.58;94474.44;5134877;27;20525;-60
2022/04/23 11:12:33;;;;;;;1.70;0.43;;;;;;;27.39;26.25;94385.06;5134985;27;20840;-59
2022/04/23 11:15:15;;;;;;;0.80;0.53;;;;;;;28.59;25.89;94422.22;5134557;27;20419;-59
2022/04/23 11:17:55;;;;;;;0.40;0.30;;;;;;;28.46;25.45;94470.28;5134325;27;20498;-58
2022/04/23 11:20:29;;;;;;;3.80;0.30;;;;;;;27.97;27.08;94467.91;5134506;27;20466;-58
2022/04/23 11:23:00;;;;;;;0.70;0.50;;;;;;;28.11;26.41;94460.44;5134557;27;20435;-58
2022/04/23 11:25:30;;;;;;;0.40;0.30;;;;;;;28.66;26.86;94471.31;5134814;27;20422;-58
2022/04/23 11:28:14;;;;;;;1.73;0.47;;;;;;;28.26;26.44;94461.09;5135104;27;20431;-59
2022/04/23 11:30:44;;;;;;;0.40;0.33;;;;;;;27.04;26.45;94477.72;5134842;27;20415;-59
2022/04/23 11:33:13;;;;;;;0.60;0.40;;;;;;;28.36;26.54;94462.94;5133832;27;20434;-60
2022/04/23 11:35:43;;;;;;;0.30;0.30;;;;;;;28.53;26.55;94462.03;5134229;27;20443;-60
2022/04/23 11:38:23;;;;;;;2.00;0.70;;;;;;;28.51;26.27;94469.84;5134276;27;20944;-60
2022/04/23 11:40:52;;;;;;;0.33;0.23;;;;;;;29.22;26.27;94455.50;5134174;27;20462;-60
2022/04/23 11:43:34;;;;;;;0.50;0.40;;;;;;;29.41;24.76;94463.84;5133949;27;20470;-60
2022/04/23 11:46:07;;;;;;;0.97;0.97;;;;;;;28.94;25.19;94465.53;5133830;27;20411;-60
2022/04/23 11:48:44;;;;;;;0.40;0.33;;;;;;;29.97;24.94;94464.25;5133994;27;20469;-60
2022/04/23 11:51:13;;;;;;;0.33;0.27;;;;;;;30.04;24.79;94461.41;5133617;27;20963;-59
2022/04/23 11:53:54;;;;;;;0.70;0.60;;;;;;;30.53;24.04;94462.59;5133967;27;20422;-60
2022/04/23 11:56:29;;;;;;;0.67;0.47;;;;;;;29.95;23.30;94464.69;5133901;27;20426;-60
2022/04/23 11:58:59;;;;;;;0.40;0.30;;;;;;;30.08;24.37;94453.94;5134010;27;20426;-60
2022/04/23 12:01:29;;;;;;;0.30;0.23;;;;;;;31.10;23.44;94468.59;5133781;27;20890;-60
2022/04/23 12:03:59;;;;;;;0.40;0.37;;;;;;;30.23;23.39;94418.97;5133679;27;20414;-60
2022/04/23 12:06:28;;;;;;;0.50;0.37;;;;;;;31.07;23.21;94463.22;5133637;27;20643;-60
2022/04/23 12:09:08;;;;;;;0.40;0.30;;;;;;;29.80;24.02;94460.63;5133188;27;20419;-60